Time;durP1;ratioP1;P1;durP2;ratioP2;P2;SDS_P1;SDS_P2;PMS_P1;PMS_P2;Temp;Humidity;BMP_temperature;BMP_pressure;BME280_temperature;BME280_humidity;BME280_pressure;Samples;Min_cycle;Max_cycle;Signal;HPM_P1;HPM_P2
2021/06/11 00:01:53;;;;;;;;;;;;;;;;;;5025346;28;19995;-88
2021/06/11 00:04:19;;;;;;;;;;;;;;;;;;5042002;28;19913;-89
2021/06/11 00:06:45;;;;;;;;;;;;;;;;;;5014428;28;19932;-88
2021/06/11 00:09:14;;;;;;;;;;;;;;;;;;5041366;28;19932;-88
2021/06/11 00:11:39;;;;;;;;;;;;;;;;;;5027051;28;19905;-90
2021/06/11 00:14:05;;;;;;;;;;;;;;;;;;5038295;28;19944;-89
2021/06/11 00:16:31;;;;;;;;;;;;;;;;;;5020805;28;19909;-88
2021/06/11 00:18:57;;;;;;;;;;;;;;;;;;5026488;28;19911;-90
2021/06/11 00:21:23;;;;;;;;;;;;;;;;;;5017793;28;19924;-88
2021/06/11 00:23:49;;;;;;;;;;;;;;;;;;5027645;28;19905;-89
2021/06/11 00:26:15;;;;;;;;;;;;;;;;;;5030401;28;19905;-89
2021/06/11 00:28:41;;;;;;;;;;;;;;;;;;5015691;28;20258;-89
2021/06/11 00:31:07;;;;;;;;;;;;;;;;;;5009227;28;19964;-90
2021/06/11 00:33:32;;;;;;;;;;;;;;;;;;5016447;28;20324;-89
2021/06/11 00:35:58;;;;;;;;;;;;;;;;;;5017974;28;19917;-90
2021/06/11 00:38:24;;;;;;;;;;;;;;;;;;5028816;28;19913;-89
2021/06/11 00:40:50;;;;;;;;;;;;;;;;;;5019552;28;19905;-90
2021/06/11 00:43:16;;;;;;;;;;;;;;;;;;5021103;28;19917;-89
2021/06/11 00:45:42;;;;;;;;;;;;;;;;;;5014679;28;19909;-90
2021/06/11 00:48:08;;;;;;;;;;;;;;;;;;5051909;28;19909;-89
2021/06/11 00:50:35;;;;;;;;;;;;;;;;;;5033626;28;19912;-90
2021/06/11 00:53:01;;;;;;;;;;;;;;;;;;5028601;28;20388;-89
2021/06/11 00:55:27;;;;;;;;;;;;;;;;;;5017405;28;19972;-89
2021/06/11 00:57:53;;;;;;;;;;;;;;;;;;5050479;28;19913;-89
2021/06/11 01:00:19;;;;;;;;;;;;;;;;;;5032650;28;19905;-89
2021/06/11 01:02:45;;;;;;;;;;;;;;;;;;5044407;28;19905;-89
2021/06/11 01:05:10;;;;;;;;;;;;;;;;;;5045285;28;19932;-90
2021/06/11 01:07:36;;;;;;;;;;;;;;;;;;5045124;28;19905;-90
2021/06/11 01:10:02;;;;;;;;;;;;;;;;;;5029891;28;20016;-90
2021/06/11 01:12:28;;;;;;;;;;;;;;;;;;5045298;28;19924;-90
2021/06/11 01:14:54;;;;;;;;;;;;;;;;;;5041534;28;19897;-89
2021/06/11 01:17:20;;;;;;;;;;;;;;;;;;5040316;28;19909;-88
2021/06/11 01:19:46;;;;;;;;;;;;;;;;;;5036154;28;19900;-89
2021/06/11 01:22:13;;;;;;;;;;;;;;;;;;5037705;28;19986;-89
2021/06/11 01:24:43;;;;;;;;;;;;;;;;;;5056659;28;19897;-88
2021/06/11 01:27:09;;;;;;;;;;;;;;;;;;5020677;28;19916;-90
2021/06/11 01:29:35;;;;;;;;;;;;;;;;;;5032247;28;19906;-89
2021/06/11 01:32:01;;;;;;;;;;;;;;;;;;5040059;28;19917;-90
2021/06/11 01:34:27;;;;;;;;;;;;;;;;;;5046223;28;19911;-90
2021/06/11 01:36:53;;;;;;;;;;;;;;;;;;5033421;28;19927;-90
2021/06/11 01:39:18;;;;;;;;;;;;;;;;;;5023153;28;19912;-90
2021/06/11 01:41:44;;;;;;;;;;;;;;;;;;5021357;28;19904;-89
2021/06/11 01:44:10;;;;;;;;;;;;;;;;;;5051252;28;19988;-89
2021/06/11 01:46:36;;;;;;;;;;;;;;;;;;5024426;28;19906;-89
2021/06/11 01:49:02;;;;;;;;;;;;;;;;;;5046521;28;19912;-89
2021/06/11 01:51:28;;;;;;;;;;;;;;;;;;5046659;28;19906;-89
2021/06/11 01:53:54;;;;;;;;;;;;;;;;;;5038108;28;19913;-90
2021/06/11 01:56:20;;;;;;;;;;;;;;;;;;5027304;28;20032;-90
2021/06/11 01:58:46;;;;;;;;;;;;;;;;;;5029594;28;19905;-90
2021/06/11 02:01:12;;;;;;;;;;;;;;;;;;5024128;28;20321;-90
2021/06/11 02:03:38;;;;;;;;;;;;;;;;;;5043680;28;19934;-90
2021/06/11 02:06:04;;;;;;;;;;;;;;;;;;5033574;28;19914;-89
2021/06/11 02:08:30;;;;;;;;;;;;;;;;;;5010861;28;19905;-89
2021/06/11 02:10:57;;;;;;;;;;;;;;;;;;5020093;28;19913;-90
2021/06/11 02:13:23;;;;;;;;;;;;;;;;;;5032822;28;19921;-90
2021/06/11 02:15:48;;;;;;;;;;;;;;;;;;5029922;28;19916;-90
2021/06/11 02:18:14;;;;;;;;;;;;;;;;;;5029495;28;19931;-91
2021/06/11 02:20:40;;;;;;;;;;;;;;;;;;5040213;28;20250;-91
2021/06/11 02:23:06;;;;;;;;;;;;;;;;;;5017714;28;19940;-90
2021/06/11 02:25:32;;;;;;;;;;;;;;;;;;5034314;28;19913;-90
2021/06/11 02:27:58;;;;;;;;;;;;;;;;;;5028587;28;19973;-90
2021/06/11 02:30:24;;;;;;;;;;;;;;;;;;5003788;28;19927;-89
2021/06/11 02:32:50;;;;;;;;;;;;;;;;;;5016310;28;20004;-89
2021/06/11 02:35:16;;;;;;;;;;;;;;;;;;5029839;28;19959;-90
2021/06/11 02:37:41;;;;;;;;;;;;;;;;;;5016060;28;20413;-90
2021/06/11 02:40:07;;;;;;;;;;;;;;;;;;5033590;28;19948;-90
2021/06/11 02:42:33;;;;;;;;;;;;;;;;;;5045777;28;19908;-90
2021/06/11 02:44:59;;;;;;;;;;;;;;;;;;5023721;28;19971;-90
2021/06/11 02:47:25;;;;;;;;;;;;;;;;;;5027752;28;19905;-90
2021/06/11 02:49:51;;;;;;;;;;;;;;;;;;5041554;28;19912;-90
2021/06/11 02:52:17;;;;;;;;;;;;;;;;;;5043730;28;20339;-90
2021/06/11 02:54:43;;;;;;;;;;;;;;;;;;5038240;28;19909;-90
2021/06/11 02:57:09;;;;;;;;;;;;;;;;;;5043498;28;20459;-89
2021/06/11 02:59:35;;;;;;;;;;;;;;;;;;5022125;28;19905;-90
2021/06/11 03:02:01;;;;;;;;;;;;;;;;;;5043920;28;19912;-90
2021/06/11 03:04:27;;;;;;;;;;;;;;;;;;5039329;28;19959;-89
2021/06/11 03:06:53;;;;;;;;;;;;;;;;;;5043170;28;19913;-89
2021/06/11 03:09:21;;;;;;;;;;;;;;;;;;5031974;28;19916;-90
2021/06/11 03:11:47;;;;;;;;;;;;;;;;;;5028212;28;20372;-89
2021/06/11 03:14:13;;;;;;;;;;;;;;;;;;5035768;28;19949;-90
2021/06/11 03:16:39;;;;;;;;;;;;;;;;;;5027255;28;19905;-90
2021/06/11 03:19:05;;;;;;;;;;;;;;;;;;5020100;28;19916;-89
2021/06/11 03:21:31;;;;;;;;;;;;;;;;;;5029623;28;19909;-90
2021/06/11 03:23:57;;;;;;;;;;;;;;;;;;5045437;28;19905;-89
2021/06/11 03:26:23;;;;;;;;;;;;;;;;;;5037344;28;19963;-90
2021/06/11 03:28:48;;;;;;;;;;;;;;;;;;5030762;28;19911;-89
2021/06/11 03:31:15;;;;;;;;;;;;;;;;;;5041050;28;19917;-90
2021/06/11 03:33:41;;;;;;;;;;;;;;;;;;5041274;28;19921;-90
2021/06/11 03:36:07;;;;;;;;;;;;;;;;;;5023069;28;19909;-90
2021/06/11 03:38:33;;;;;;;;;;;;;;;;;;5026131;28;19912;-90
2021/06/11 03:40:59;;;;;;;;;;;;;;;;;;5022822;28;20419;-90
2021/06/11 03:43:25;;;;;;;;;;;;;;;;;;5018215;28;19912;-90
2021/06/11 03:45:51;;;;;;;;;;;;;;;;;;5010180;28;19947;-89
2021/06/11 03:48:16;;;;;;;;;;;;;;;;;;5002137;28;19910;-90
2021/06/11 03:50:42;;;;;;;;;;;;;;;;;;5025652;28;19932;-89
2021/06/11 03:53:08;;;;;;;;;;;;;;;;;;5019368;28;19990;-94
2021/06/11 03:55:34;;;;;;;;;;;;;;;;;;5018087;28;19933;-93
2021/06/11 03:58:00;;;;;;;;;;;;;;;;;;5010365;28;19917;-94
2021/06/11 04:00:26;;;;;;;;;;;;;;;;;;5015333;28;19928;-95
2021/06/11 04:02:52;;;;;;;;;;;;;;;;;;5025993;28;20008;-95
2021/06/11 04:05:18;;;;;;;;;;;;;;;;;;5008431;28;19905;-95
2021/06/11 04:07:44;;;;;;;;;;;;;;;;;;5036781;28;19949;-96
2021/06/11 04:10:10;;;;;;;;;;;;;;;;;;5023184;28;19910;-96
2021/06/11 04:12:35;;;;;;;;;;;;;;;;;;5023542;28;19913;-96
2021/06/11 04:15:01;;;;;;;;;;;;;;;;;;5048502;28;19917;-95
2021/06/11 04:17:27;;;;;;;;;;;;;;;;;;5048637;28;19905;-95
2021/06/11 04:19:55;;;;;;;;;;;;;;;;;;5039409;28;19909;-96
2021/06/11 04:22:20;;;;;;;;;;;;;;;;;;5024691;28;19912;-95
2021/06/11 04:24:46;;;;;;;;;;;;;;;;;;5035979;28;19933;-95
2021/06/11 04:27:12;;;;;;;;;;;;;;;;;;5014728;28;19920;-96
2021/06/11 04:29:38;;;;;;;;;;;;;;;;;;5033866;28;19963;-96
2021/06/11 04:32:04;;;;;;;;;;;;;;;;;;5002106;28;19924;-96
2021/06/11 04:34:30;;;;;;;;;;;;;;;;;;5024965;28;19920;-95
2021/06/11 04:36:56;;;;;;;;;;;;;;;;;;5007756;28;19909;-94
2021/06/11 04:39:22;;;;;;;;;;;;;;;;;;5015376;28;19909;-95
2021/06/11 04:41:48;;;;;;;;;;;;;;;;;;5017190;28;19913;-95
2021/06/11 04:44:14;;;;;;;;;;;;;;;;;;5014952;28;20004;-96
2021/06/11 04:46:40;;;;;;;;;;;;;;;;;;5018390;28;19921;-96
2021/06/11 04:49:06;;;;;;;;;;;;;;;;;;5004469;28;19910;-96
2021/06/11 04:51:32;;;;;;;;;;;;;;;;;;4994602;28;19910;-96
2021/06/11 04:53:58;;;;;;;;;;;;;;;;;;4998727;28;19914;-95
2021/06/11 04:56:24;;;;;;;;;;;;;;;;;;5015361;28;19961;-96
2021/06/11 04:58:52;;;;;;;;;;;;;;;;;;5015248;28;19948;-96
2021/06/11 05:01:18;;;;;;;;;;;;;;;;;;5006228;28;19909;-96
2021/06/11 05:03:44;;;;;;;;;;;;;;;;;;5029414;28;19916;-96
2021/06/11 05:06:09;;;;;;;;;;;;;;;;;;5004630;28;19996;-96
2021/06/11 05:08:35;;;;;;;;;;;;;;;;;;5011765;28;19893;-94
2021/06/11 05:11:02;;;;;;;;;;;;;;;;;;5011753;28;19912;-95
2021/06/11 05:13:28;;;;;;;;;;;;;;;;;;5030467;28;19924;-95
2021/06/11 05:15:54;;;;;;;;;;;;;;;;;;5022353;28;20004;-96
2021/06/11 05:18:20;;;;;;;;;;;;;;;;;;5017985;28;20438;-95
2021/06/11 05:20:46;;;;;;;;;;;;;;;;;;5003822;28;19905;-96
2021/06/11 05:23:12;;;;;;;;;;;;;;;;;;5011062;28;20321;-90
2021/06/11 05:25:38;;;;;;;;;;;;;;;;;;5017423;28;19932;-88
2021/06/11 05:28:04;;;;;;;;;;;;;;;;;;5000602;28;20015;-88
2021/06/11 05:30:30;;;;;;;;;;;;;;;;;;5024435;28;20423;-91
2021/06/11 05:32:56;;;;;;;;;;;;;;;;;;5034643;28;19924;-87
2021/06/11 05:35:21;;;;;;;;;;;;;;;;;;5020718;28;19906;-88
2021/06/11 05:37:47;;;;;;;;;;;;;;;;;;5025068;28;20278;-88
2021/06/11 05:40:13;;;;;;;;;;;;;;;;;;5036172;28;19909;-87
2021/06/11 05:42:39;;;;;;;;;;;;;;;;;;5028098;28;19948;-87
2021/06/11 05:45:06;;;;;;;;;;;;;;;;;;5019415;28;19968;-89
2021/06/11 05:47:32;;;;;;;;;;;;;;;;;;5009741;28;19905;-89
2021/06/11 05:49:57;;;;;;;;;;;;;;;;;;5044939;28;19905;-90
2021/06/11 05:52:23;;;;;;;;;;;;;;;;;;5042226;28;19909;-89
2021/06/11 05:54:49;;;;;;;;;;;;;;;;;;5041856;28;20402;-90
2021/06/11 05:57:15;;;;;;;;;;;;;;;;;;5031220;28;20055;-88
2021/06/11 05:59:41;;;;;;;;;;;;;;;;;;5017968;28;19963;-89
2021/06/11 06:02:07;;;;;;;;;;;;;;;;;;5028534;28;19927;-89
2021/06/11 06:04:33;;;;;;;;;;;;;;;;;;5015108;28;19920;-89
2021/06/11 06:06:59;;;;;;;;;;;;;;;;;;5027436;28;19913;-89
2021/06/11 06:09:24;;;;;;;;;;;;;;;;;;5024679;28;20350;-88
2021/06/11 06:11:50;;;;;;;;;;;;;;;;;;5031843;28;20540;-89
2021/06/11 06:14:16;;;;;;;;;;;;;;;;;;5016446;28;20345;-89
2021/06/11 06:16:42;;;;;;;;;;;;;;;;;;5033920;28;19913;-88
2021/06/11 06:19:08;;;;;;;;;;;;;;;;;;5027007;28;19972;-88
2021/06/11 06:21:34;;;;;;;;;;;;;;;;;;5036594;28;19909;-89
2021/06/11 06:24:00;;;;;;;;;;;;;;;;;;5016655;28;20350;-89
2021/06/11 06:26:26;;;;;;;;;;;;;;;;;;5046356;28;20346;-89
2021/06/11 06:28:52;;;;;;;;;;;;;;;;;;5016043;28;19916;-89
2021/06/11 06:31:18;;;;;;;;;;;;;;;;;;5006103;28;19940;-87
2021/06/11 06:33:43;;;;;;;;;;;;;;;;;;5032923;28;19939;-90
2021/06/11 06:36:10;;;;;;;;;;;;;;;;;;5032773;28;19913;-88
2021/06/11 06:38:36;;;;;;;;;;;;;;;;;;5037563;28;20270;-90
2021/06/11 06:41:02;;;;;;;;;;;;;;;;;;5045246;28;19905;-90
2021/06/11 06:43:28;;;;;;;;;;;;;;;;;;5048419;28;19905;-90
2021/06/11 06:45:53;;;;;;;;;;;;;;;;;;5044598;28;19976;-88
2021/06/11 06:48:19;;;;;;;;;;;;;;;;;;5023052;28;20369;-88
2021/06/11 06:50:45;;;;;;;;;;;;;;;;;;5016298;28;19905;-89
2021/06/11 06:53:11;;;;;;;;;;;;;;;;;;5045568;28;19959;-88
2021/06/11 06:55:38;;;;;;;;;;;;;;;;;;5040339;28;19905;-89
2021/06/11 06:58:04;;;;;;;;;;;;;;;;;;5019297;28;20044;-91
2021/06/11 07:00:30;;;;;;;;;;;;;;;;;;5013291;28;19909;-88
2021/06/11 07:02:55;;;;;;;;;;;;;;;;;;5038746;28;19909;-88
2021/06/11 07:05:21;;;;;;;;;;;;;;;;;;5026360;28;19912;-88
2021/06/11 07:07:47;;;;;;;;;;;;;;;;;;5043714;28;20369;-88
2021/06/11 07:10:13;;;;;;;;;;;;;;;;;;5011455;28;19913;-89
2021/06/11 07:12:39;;;;;;;;;;;;;;;;;;5023213;28;19909;-90
2021/06/11 07:15:05;;;;;;;;;;;;;;;;;;5039939;28;20289;-91
2021/06/11 07:17:31;;;;;;;;;;;;;;;;;;5034003;28;19905;-89
2021/06/11 07:19:57;;;;;;;;;;;;;;;;;;5019297;28;19905;-88
2021/06/11 07:22:23;;;;;;;;;;;;;;;;;;5022824;28;19909;-89
2021/06/11 07:24:49;;;;;;;;;;;;;;;;;;5015368;28;20251;-88
2021/06/11 07:27:15;;;;;;;;;;;;;;;;;;5043935;28;19905;-90
2021/06/11 07:29:44;;;;;;;;;;;;;;;;;;5025832;28;19905;-89
2021/06/11 07:32:10;;;;;;;;;;;;;;;;;;5043970;28;19916;-89
2021/06/11 07:34:36;;;;;;;;;;;;;;;;;;5024909;28;19909;-89
2021/06/11 07:37:02;;;;;;;;;;;;;;;;;;5033644;28;19909;-89
2021/06/11 07:39:28;;;;;;;;;;;;;;;;;;5012727;28;19916;-88
2021/06/11 07:41:54;;;;;;;;;;;;;;;;;;5031482;28;19955;-88
2021/06/11 07:44:20;;;;;;;;;;;;;;;;;;5036852;28;19905;-89
2021/06/11 07:46:46;;;;;;;;;;;;;;;;;;5012918;28;19916;-89
2021/06/11 07:49:14;;;;;;;;;;;;;;;;;;5035118;28;19932;-88
2021/06/11 07:51:39;;;;;;;;;;;;;;;;;;5046297;28;19909;-88
2021/06/11 07:54:07;;;;;;;;;;;;;;;;;;5032817;28;19995;-88
2021/06/11 07:56:32;;;;;;;;;;;;;;;;;;5045635;28;19908;-88
2021/06/11 07:58:58;;;;;;;;;;;;;;;;;;5019888;28;20054;-88
2021/06/11 08:01:26;;;;;;;;;;;;;;;;;;5035718;28;19995;-90
2021/06/11 08:03:52;;;;;;;;;;;;;;;;;;5030676;28;19911;-89
2021/06/11 08:06:17;;;;;;;;;;;;;;;;;;5008215;28;19992;-89
2021/06/11 08:08:43;;;;;;;;;;;;;;;;;;5031932;28;19998;-89
2021/06/11 08:11:09;;;;;;;;;;;;;;;;;;5013003;28;20309;-88
2021/06/11 08:13:35;;;;;;;;;;;;;;;;;;5010045;28;19920;-90
2021/06/11 08:16:01;;;;;;;;;;;;;;;;;;5014714;28;20380;-89
2021/06/11 08:18:27;;;;;;;;;;;;;;;;;;5009726;28;19909;-89
2021/06/11 08:20:53;;;;;;;;;;;;;;;;;;5037017;28;19909;-89
2021/06/11 08:23:18;;;;;;;;;;;;;;;;;;5047541;28;19905;-90
2021/06/11 08:25:44;;;;;;;;;;;;;;;;;;5032900;28;19944;-89
2021/06/11 08:28:11;;;;;;;;;;;;;;;;;;5014100;28;20058;-89
2021/06/11 08:30:37;;;;;;;;;;;;;;;;;;5018332;28;19916;-89
2021/06/11 08:33:02;;;;;;;;;;;;;;;;;;5020725;28;19921;-90
2021/06/11 08:35:28;;;;;;;;;;;;;;;;;;5034858;28;19905;-90
2021/06/11 08:37:54;;;;;;;;;;;;;;;;;;5045910;28;19921;-90
2021/06/11 08:40:20;;;;;;;;;;;;;;;;;;5046609;28;19955;-90
2021/06/11 08:42:46;;;;;;;;;;;;;;;;;;5036025;28;20003;-89
2021/06/11 08:45:12;;;;;;;;;;;;;;;;;;5023266;28;19913;-89
2021/06/11 08:47:38;;;;;;;;;;;;;;;;;;5008695;28;19909;-89
2021/06/11 08:50:04;;;;;;;;;;;;;;;;;;5023871;28;19928;-87
2021/06/11 08:52:30;;;;;;;;;;;;;;;;;;5019135;28;19910;-90
2021/06/11 08:54:56;;;;;;;;;;;;;;;;;;5008679;28;19913;-90
2021/06/11 08:57:23;;;;;;;;;;;;;;;;;;5029374;28;20386;-90
2021/06/11 08:59:48;;;;;;;;;;;;;;;;;;5040652;28;19912;-89
2021/06/11 09:02:14;;;;;;;;;;;;;;;;;;5041150;28;19909;-90
2021/06/11 09:04:40;;;;;;;;;;;;;;;;;;5026328;28;20405;-90
2021/06/11 09:07:06;;;;;;;;;;;;;;;;;;5022876;28;19909;-90
2021/06/11 09:09:32;;;;;;;;;;;;;;;;;;5034518;28;19909;-89
2021/06/11 09:11:59;;;;;;;;;;;;;;;;;;5030141;28;19917;-89
2021/06/11 09:14:25;;;;;;;;;;;;;;;;;;5032218;28;19959;-89
2021/06/11 09:16:55;;;;;;;;;;;;;;;;;;5026891;28;19913;-89
2021/06/11 09:19:23;;;;;;;;;;;;;;;;;;5032315;28;19913;-89
2021/06/11 09:21:49;;;;;;;;;;;;;;;;;;5024867;28;19956;-87
2021/06/11 09:26:49;;;;;;;;;;;;;;;;;;5043925;28;19905;-90
2021/06/11 09:29:15;;;;;;;;;;;;;;;;;;5025622;28;19912;-90
2021/06/11 09:31:41;;;;;;;;;;;;;;;;;;5025313;28;19936;-88
2021/06/11 09:34:07;;;;;;;;;;;;;;;;;;5011909;28;19971;-89
2021/06/11 09:36:33;;;;;;;;;;;;;;;;;;5031850;28;20282;-88
2021/06/11 09:38:59;;;;;;;;;;;;;;;;;;5030783;28;19952;-88
2021/06/11 09:41:25;;;;;;;;;;;;;;;;;;5018908;28;20412;-89
2021/06/11 09:43:50;;;;;;;;;;;;;;;;;;5054001;28;19919;-87
2021/06/11 09:46:16;;;;;;;;;;;;;;;;;;5052902;28;19912;-88
2021/06/11 09:48:44;;;;;;;;;;;;;;;;;;5052264;28;19909;-89
2021/06/11 09:51:10;;;;;;;;;;;;;;;;;;5035326;28;19951;-89
2021/06/11 09:53:36;;;;;;;;;;;;;;;;;;5018523;28;19921;-85
2021/06/11 09:56:01;;;;;;;;;;;;;;;;;;5026042;28;19960;-87
2021/06/11 09:58:27;;;;;;;;;;;;;;;;;;5045733;28;19915;-86
2021/06/11 10:00:54;;;;;;;;;;;;;;;;;;5048603;28;19935;-85
2021/06/11 10:03:19;;;;;;;;;;;;;;;;;;5043274;28;19909;-87
2021/06/11 10:05:45;;;;;;;;;;;;;;;;;;5039380;28;19905;-87
2021/06/11 10:08:11;;;;;;;;;;;;;;;;;;5014467;28;19909;-88
2021/06/11 10:10:37;;;;;;;;;;;;;;;;;;5014861;28;19959;-87
2021/06/11 10:13:03;;;;;;;;;;;;;;;;;;5042136;28;19921;-88
2021/06/11 10:15:29;;;;;;;;;;;;;;;;;;5051201;28;19905;-89
2021/06/11 10:17:55;;;;;;;;;;;;;;;;;;5015560;28;19905;-90
2021/06/11 10:20:21;;;;;;;;;;;;;;;;;;5041747;28;19905;-87
2021/06/11 10:22:47;;;;;;;;;;;;;;;;;;5019289;28;19932;-90
2021/06/11 10:25:12;;;;;;;;;;;;;;;;;;5025658;28;19964;-89
2021/06/11 10:27:38;;;;;;;;;;;;;;;;;;5012580;28;19908;-89
2021/06/11 10:30:04;;;;;;;;;;;;;;;;;;5038522;28;19963;-88
2021/06/11 10:32:30;;;;;;;;;;;;;;;;;;5007418;28;20266;-88
2021/06/11 10:34:56;;;;;;;;;;;;;;;;;;5049887;28;19917;-87
2021/06/11 10:37:22;;;;;;;;;;;;;;;;;;5041649;28;19909;-87
2021/06/11 10:39:48;;;;;;;;;;;;;;;;;;5019308;28;19909;-88
2021/06/11 10:42:14;;;;;;;;;;;;;;;;;;5038393;28;19988;-87
2021/06/11 10:44:40;;;;;;;;;;;;;;;;;;5034650;28;19936;-88
2021/06/11 10:47:06;;;;;;;;;;;;;;;;;;5019589;28;19905;-88
2021/06/11 10:49:32;;;;;;;;;;;;;;;;;;5032479;28;19909;-87
2021/06/11 10:51:58;;;;;;;;;;;;;;;;;;5009087;28;19940;-88
2021/06/11 10:54:23;;;;;;;;;;;;;;;;;;5034978;28;19917;-88
2021/06/11 10:56:49;;;;;;;;;;;;;;;;;;5037828;28;19905;-87
2021/06/11 10:59:15;;;;;;;;;;;;;;;;;;5022264;28;19905;-87
2021/06/11 11:01:41;;;;;;;;;;;;;;;;;;5027181;28;19971;-87
2021/06/11 11:04:07;;;;;;;;;;;;;;;;;;5022825;28;19909;-87
2021/06/11 11:06:33;;;;;;;;;;;;;;;;;;5006581;28;19956;-88
2021/06/11 11:08:59;;;;;;;;;;;;;;;;;;5036619;28;19964;-88
2021/06/11 11:11:25;;;;;;;;;;;;;;;;;;5031204;28;19916;-86
2021/06/11 11:13:51;;;;;;;;;;;;;;;;;;5043394;28;19921;-88
2021/06/11 11:16:16;;;;;;;;;;;;;;;;;;5030683;28;19908;-88
2021/06/11 11:18:42;;;;;;;;;;;;;;;;;;5029426;28;19920;-87
2021/06/11 11:21:08;;;;;;;;;;;;;;;;;;5036457;28;19905;-87
2021/06/11 11:23:35;;;;;;;;;;;;;;;;;;5032521;28;19905;-86
2021/06/11 11:26:01;;;;;;;;;;;;;;;;;;5041370;28;19909;-87
2021/06/11 11:28:27;;;;;;;;;;;;;;;;;;5043750;28;19912;-86
2021/06/11 11:30:53;;;;;;;;;;;;;;;;;;5022284;28;19921;-86
2021/06/11 11:33:18;;;;;;;;;;;;;;;;;;5031321;28;19923;-86
2021/06/11 11:35:46;;;;;;;;;;;;;;;;;;5034402;28;19905;-87
2021/06/11 11:38:12;;;;;;;;;;;;;;;;;;5031915;28;19905;-87
2021/06/11 11:40:38;;;;;;;;;;;;;;;;;;5022045;28;19959;-86
2021/06/11 11:43:04;;;;;;;;;;;;;;;;;;5014176;28;19906;-86
2021/06/11 11:45:30;;;;;;;;;;;;;;;;;;5002434;28;19905;-86
2021/06/11 11:47:56;;;;;;;;;;;;;;;;;;5019943;28;20005;-87
2021/06/11 11:50:22;;;;;;;;;;;;;;;;;;5037311;28;19905;-86
2021/06/11 11:52:48;;;;;;;;;;;;;;;;;;5039387;28;19955;-87
2021/06/11 11:55:14;;;;;;;;;;;;;;;;;;5041010;28;20365;-86
2021/06/11 11:57:41;;;;;;;;;;;;;;;;;;5036853;28;20378;-87
2021/06/11 12:00:07;;;;;;;;;;;;;;;;;;5038462;28;19952;-86
2021/06/11 12:02:33;;;;;;;;;;;;;;;;;;5027274;28;19913;-87
2021/06/11 12:04:59;;;;;;;;;;;;;;;;;;5020717;28;19913;-87
2021/06/11 12:07:25;;;;;;;;;;;;;;;;;;5036872;28;19920;-87
2021/06/11 12:09:53;;;;;;;;;;;;;;;;;;5040050;28;19908;-87
2021/06/11 12:12:19;;;;;;;;;;;;;;;;;;5041148;28;19968;-90
2021/06/11 12:14:45;;;;;;;;;;;;;;;;;;5017965;28;20396;-90
2021/06/11 12:17:11;;;;;;;;;;;;;;;;;;5009031;28;19953;-91
2021/06/11 12:19:37;;;;;;;;;;;;;;;;;;5033146;28;19909;-90
2021/06/11 12:22:02;;;;;;;;;;;;;;;;;;5037226;28;20050;-90
2021/06/11 12:24:28;;;;;;;;;;;;;;;;;;5026169;28;20281;-90
2021/06/11 12:26:54;;;;;;;;;;;;;;;;;;5046103;28;24521;-90
2021/06/11 12:29:20;;;;;;;;;;;;;;;;;;5028914;28;19931;-89
2021/06/11 12:31:46;;;;;;;;;;;;;;;;;;5028643;28;19916;-90
2021/06/11 12:34:12;;;;;;;;;;;;;;;;;;5042670;28;20011;-90
2021/06/11 12:36:38;;;;;;;;;;;;;;;;;;5020331;28;19910;-90
2021/06/11 12:39:04;;;;;;;;;;;;;;;;;;5022137;28;19916;-90
2021/06/11 12:41:30;;;;;;;;;;;;;;;;;;5038564;28;19905;-90
2021/06/11 12:44:15;;;;;;;;;;;;;;;;;;5034020;28;19909;-90
2021/06/11 12:46:41;;;;;;;;;;;;;;;;;;5028131;28;19949;-90
2021/06/11 12:49:06;;;;;;;;;;;;;;;;;;5009558;28;19916;-90
2021/06/11 12:51:33;;;;;;;;;;;;;;;;;;5002799;28;20421;-90
2021/06/11 12:53:59;;;;;;;;;;;;;;;;;;5044541;28;19917;-91
2021/06/11 12:56:25;;;;;;;;;;;;;;;;;;5041557;28;20372;-90
2021/06/11 12:58:50;;;;;;;;;;;;;;;;;;5042656;28;19909;-91
2021/06/11 13:01:16;;;;;;;;;;;;;;;;;;5037891;28;19889;-90
2021/06/11 13:03:42;;;;;;;;;;;;;;;;;;5032161;28;20003;-90
2021/06/11 13:06:08;;;;;;;;;;;;;;;;;;5035340;28;19913;-90
2021/06/11 13:08:34;;;;;;;;;;;;;;;;;;5031701;28;20317;-91
2021/06/11 13:11:00;;;;;;;;;;;;;;;;;;5033469;28;19905;-90
2021/06/11 13:13:26;;;;;;;;;;;;;;;;;;5038167;28;20437;-91
2021/06/11 13:15:52;;;;;;;;;;;;;;;;;;5023746;28;19912;-90
2021/06/11 13:18:18;;;;;;;;;;;;;;;;;;5024453;28;19966;-91
2021/06/11 13:20:44;;;;;;;;;;;;;;;;;;5006659;28;19905;-90
2021/06/11 13:23:10;;;;;;;;;;;;;;;;;;5018040;28;19928;-90
2021/06/11 13:25:36;;;;;;;;;;;;;;;;;;5018409;28;19956;-89
2021/06/11 13:28:02;;;;;;;;;;;;;;;;;;5038843;28;19944;-90
2021/06/11 13:30:28;;;;;;;;;;;;;;;;;;5036054;28;19917;-90
2021/06/11 13:32:54;;;;;;;;;;;;;;;;;;5021980;28;20357;-90
2021/06/11 13:35:20;;;;;;;;;;;;;;;;;;5000597;28;19905;-91
2021/06/11 13:37:45;;;;;;;;;;;;;;;;;;5044138;28;19916;-90
2021/06/11 13:40:11;;;;;;;;;;;;;;;;;;5018734;28;19913;-90
2021/06/11 13:42:41;;;;;;;;;;;;;;;;;;5028205;28;20368;-90
2021/06/11 13:45:07;;;;;;;;;;;;;;;;;;5019000;28;20003;-91
2021/06/11 13:47:33;;;;;;;;;;;;;;;;;;5019987;28;19921;-90
2021/06/11 13:49:59;;;;;;;;;;;;;;;;;;5019480;28;19992;-90
2021/06/11 13:52:25;;;;;;;;;;;;;;;;;;5030147;28;19909;-90
2021/06/11 13:54:51;;;;;;;;;;;;;;;;;;5019687;28;19901;-91
2021/06/11 13:57:17;;;;;;;;;;;;;;;;;;5041379;28;19909;-90
2021/06/11 13:59:45;;;;;;;;;;;;;;;;;;5008522;28;19932;-90
2021/06/11 14:02:11;;;;;;;;;;;;;;;;;;5038788;28;19906;-91
2021/06/11 14:04:37;;;;;;;;;;;;;;;;;;5035613;28;19908;-90
2021/06/11 14:07:03;;;;;;;;;;;;;;;;;;5027529;28;19936;-89
2021/06/11 14:09:29;;;;;;;;;;;;;;;;;;5040817;28;20409;-90
2021/06/11 14:11:55;;;;;;;;;;;;;;;;;;5036013;28;20297;-90
2021/06/11 14:14:21;;;;;;;;;;;;;;;;;;5028376;28;19919;-90
2021/06/11 14:16:47;;;;;;;;;;;;;;;;;;5037414;28;19905;-90
2021/06/11 14:19:13;;;;;;;;;;;;;;;;;;5034747;28;19967;-90
2021/06/11 14:21:40;;;;;;;;;;;;;;;;;;5030925;28;19921;-90
2021/06/11 14:24:08;;;;;;;;;;;;;;;;;;5035240;28;19909;-91
2021/06/11 14:26:34;;;;;;;;;;;;;;;;;;5022055;28;19959;-91
2021/06/11 14:29:00;;;;;;;;;;;;;;;;;;5036973;28;20332;-90
2021/06/11 14:31:26;;;;;;;;;;;;;;;;;;5036728;28;19916;-90
2021/06/11 14:33:52;;;;;;;;;;;;;;;;;;5032232;28;19913;-90
2021/06/11 14:36:18;;;;;;;;;;;;;;;;;;5038567;28;20282;-90
2021/06/11 14:38:44;;;;;;;;;;;;;;;;;;5024117;28;19916;-90
2021/06/11 14:41:16;;;;;;;;;;;;;;;;;;5069217;28;20292;-61
2021/06/11 14:43:42;;;;;;;;;;;;;;;;;;5051772;28;19913;-61
2021/06/11 14:46:08;;;;;;;;;;;;;;;;;;5049688;28;19960;-61
2021/06/11 14:48:34;;;;;;;;;;;;;;;;;;5050879;28;19921;-61
2021/06/11 14:51:00;;;;;;;;;;;;;;;;;;5029886;28;19924;-61
2021/06/11 14:53:34;;;;;;;;;;;;;;;;;;5053098;28;20287;-61
2021/06/11 14:56:15;;;;;;;;;;;;;;;;;;5050275;28;19913;-62
2021/06/11 14:58:41;;;;;;;;;;;;;;;;;;5046359;28;19913;-62
2021/06/11 15:01:08;;;;;;;;;;;;;;;;;;5049638;28;19975;-61
2021/06/11 15:03:34;;;;;;;;;;;;;;;;;;5049607;28;19913;-61
2021/06/11 15:06:00;;;;;;;;;;;;;;;;;;5029479;28;20249;-61
2021/06/11 15:08:26;;;;;;;;;;;;;;;;;;5052331;28;19949;-61
2021/06/11 15:10:52;;;;;;;;;;;;;;;;;;5049656;28;20426;-61
2021/06/11 15:13:22;;;;;;;;;;;;;;;;;;5049369;28;20020;-61
2021/06/11 15:15:49;;;;;;;;;;;;;;;;;;5049317;28;19948;-61
2021/06/11 15:18:15;;;;;;;;;;;;;;;;;;5046521;28;20330;-61
2021/06/11 15:20:41;;;;;;;;;;;;;;;;;;5049474;28;20059;-61
2021/06/11 15:23:07;;;;;;;;;;;;;;;;;;5050010;28;19960;-61
2021/06/11 15:25:33;;;;;;;;;;;;;;;;;;5049381;28;19913;-61
2021/06/11 15:27:59;;;;;;;;;;;;;;;;;;5046233;28;20015;-61
2021/06/11 15:30:25;;;;;;;;;;;;;;;;;;5047286;28;19912;-61
2021/06/11 15:32:52;;;;;;;;;;;;;;;;;;5047540;28;20399;-61
2021/06/11 15:35:18;;;;;;;;;;;;;;;;;;5051207;28;20385;-61
2021/06/11 15:37:44;;;;;;;;;;;;;;;;;;5048796;28;20267;-61
2021/06/11 15:40:10;;;;;;;;;;;;;;;;;;5048174;28;19921;-61
2021/06/11 15:42:36;;;;;;;;;;;;;;;;;;5049160;28;19919;-61
2021/06/11 15:45:02;;;;;;;;;;;;;;;;;;5045060;28;19917;-63
2021/06/11 15:47:28;;;;;;;;;;;;;;;;;;5052385;28;19931;-63
2021/06/11 15:49:57;;;;;;;;;;;;;;;;;;5048689;28;19974;-63
2021/06/11 15:52:23;;;;;;;;;;;;;;;;;;5036549;28;19920;-63
2021/06/11 15:54:49;;;;;;;;;;;;;;;;;;5035377;28;20320;-63
2021/06/11 15:57:14;;;;;;;;;;;;;;;;;;5032793;28;19913;-63
2021/06/11 15:59:40;;;;;;;;;;;;;;;;;;5033204;28;20296;-64
2021/06/11 16:02:06;;;;;;;;;;;;;;;;;;5036683;28;19956;-64
2021/06/11 16:04:32;;;;;;;;;;;;;;;;;;5035158;28;20372;-63
2021/06/11 16:07:00;;;;;;;;;;;;;;;;;;5034871;28;19921;-64
2021/06/11 16:09:26;;;;;;;;;;;;;;;;;;5033742;28;20274;-64
2021/06/11 16:11:52;;;;;;;;;;;;;;;;;;5033450;28;20059;-63
2021/06/11 16:14:18;;;;;;;;;;;;;;;;;;5037464;28;19909;-64
2021/06/11 16:16:44;;;;;;;;;;;;;;;;;;5034601;28;20516;-64
2021/06/11 16:19:10;;;;;;;;;;;;;;;;;;5034974;28;19920;-64
2021/06/11 16:21:35;;;;;;;;;;;;;;;;;;5034744;28;20336;-63
2021/06/11 16:24:01;;;;;;;;;;;;;;;;;;5030544;28;20387;-64
2021/06/11 16:26:27;;;;;;;;;;;;;;;;;;5038240;28;20004;-64
2021/06/11 16:28:53;;;;;;;;;;;;;;;;;;5030296;28;20387;-63
2021/06/11 16:31:19;;;;;;;;;;;;;;;;;;5034590;28;19917;-63
2021/06/11 16:33:45;;;;;;;;;;;;;;;;;;5034712;28;20494;-63
2021/06/11 16:36:11;;;;;;;;;;;;;;;;;;5030877;28;19921;-63
2021/06/11 16:38:40;;;;;;;;;;;;;;;;;;5036121;28;20395;-63
2021/06/11 16:41:06;;;;;;;;;;;;;;;;;;5036765;28;19925;-63